sensor_id;sensor_type;location;lat;lon;timestamp;P1;durP1;ratioP1;P2;durP2;ratioP2
21527;SDS011;10925;49.102;-0.370;2022-12-11T00:00:39;49.67;;;26.02;;
21527;SDS011;10925;49.102;-0.370;2022-12-11T00:03:06;49.30;;;26.48;;
21527;SDS011;10925;49.102;-0.370;2022-12-11T00:05:40;57.53;;;26.70;;
21527;SDS011;10925;49.102;-0.370;2022-12-11T00:08:06;51.88;;;25.60;;
21527;SDS011;10925;49.102;-0.370;2022-12-11T00:10:33;61.28;;;27.17;;
21527;SDS011;10925;49.102;-0.370;2022-12-11T00:13:03;59.30;;;27.80;;
21527;SDS011;10925;49.102;-0.370;2022-12-11T00:15:30;58.53;;;27.05;;
21527;SDS011;10925;49.102;-0.370;2022-12-11T00:17:57;61.95;;;28.50;;
21527;SDS011;10925;49.102;-0.370;2022-12-11T00:20:23;60.00;;;27.95;;
21527;SDS011;10925;49.102;-0.370;2022-12-11T00:22:50;57.05;;;26.65;;
21527;SDS011;10925;49.102;-0.370;2022-12-11T00:25:17;59.30;;;27.20;;
21527;SDS011;10925;49.102;-0.370;2022-12-11T00:27:44;53.13;;;24.98;;
21527;SDS011;10925;49.102;-0.370;2022-12-11T00:30:12;49.95;;;24.52;;
21527;SDS011;10925;49.102;-0.370;2022-12-11T00:32:39;49.42;;;25.45;;
21527;SDS011;10925;49.102;-0.370;2022-12-11T00:35:06;47.75;;;24.02;;
21527;SDS011;10925;49.102;-0.370;2022-12-11T00:37:33;47.72;;;25.23;;
21527;SDS011;10925;49.102;-0.370;2022-12-11T00:39:58;55.20;;;26.77;;
21527;SDS011;10925;49.102;-0.370;2022-12-11T00:42:25;54.15;;;26.55;;
21527;SDS011;10925;49.102;-0.370;2022-12-11T00:44:51;53.08;;;27.25;;
21527;SDS011;10925;49.102;-0.370;2022-12-11T00:47:19;56.67;;;26.58;;
21527;SDS011;10925;49.102;-0.370;2022-12-11T00:49:45;55.60;;;26.00;;
21527;SDS011;10925;49.102;-0.370;2022-12-11T00:52:15;51.63;;;25.70;;
21527;SDS011;10925;49.102;-0.370;2022-12-11T00:54:43;57.67;;;28.08;;
21527;SDS011;10925;49.102;-0.370;2022-12-11T00:57:10;54.83;;;26.80;;
21527;SDS011;10925;49.102;-0.370;2022-12-11T00:59:37;56.28;;;27.40;;
21527;SDS011;10925;49.102;-0.370;2022-12-11T01:02:03;57.05;;;25.63;;
21527;SDS011;10925;49.102;-0.370;2022-12-11T01:04:30;53.92;;;25.90;;
21527;SDS011;10925;49.102;-0.370;2022-12-11T01:06:57;51.97;;;26.40;;
21527;SDS011;10925;49.102;-0.370;2022-12-11T01:09:24;51.95;;;26.27;;
21527;SDS011;10925;49.102;-0.370;2022-12-11T01:12:09;52.83;;;26.63;;
21527;SDS011;10925;49.102;-0.370;2022-12-11T01:14:36;50.17;;;25.17;;
21527;SDS011;10925;49.102;-0.370;2022-12-11T01:17:02;54.85;;;27.27;;
21527;SDS011;10925;49.102;-0.370;2022-12-11T01:19:29;57.85;;;26.30;;
21527;SDS011;10925;49.102;-0.370;2022-12-11T01:21:56;51.20;;;26.40;;
21527;SDS011;10925;49.102;-0.370;2022-12-11T01:24:22;54.47;;;26.58;;
21527;SDS011;10925;49.102;-0.370;2022-12-11T01:26:49;56.05;;;26.65;;
21527;SDS011;10925;49.102;-0.370;2022-12-11T01:29:16;57.20;;;26.70;;
21527;SDS011;10925;49.102;-0.370;2022-12-11T01:31:42;55.22;;;26.17;;
21527;SDS011;10925;49.102;-0.370;2022-12-11T01:34:09;48.88;;;23.45;;
21527;SDS011;10925;49.102;-0.370;2022-12-11T01:36:36;52.55;;;23.42;;
21527;SDS011;10925;49.102;-0.370;2022-12-11T01:39:02;49.67;;;24.10;;
21527;SDS011;10925;49.102;-0.370;2022-12-11T01:41:29;52.45;;;26.00;;
21527;SDS011;10925;49.102;-0.370;2022-12-11T01:44:02;50.20;;;25.23;;
21527;SDS011;10925;49.102;-0.370;2022-12-11T01:46:30;50.75;;;25.30;;
21527;SDS011;10925;49.102;-0.370;2022-12-11T01:48:57;50.28;;;24.65;;
21527;SDS011;10925;49.102;-0.370;2022-12-11T01:51:25;53.42;;;26.75;;
21527;SDS011;10925;49.102;-0.370;2022-12-11T01:53:53;56.50;;;27.25;;
21527;SDS011;10925;49.102;-0.370;2022-12-11T01:56:22;54.75;;;27.67;;
21527;SDS011;10925;49.102;-0.370;2022-12-11T01:58:51;52.97;;;25.23;;
21527;SDS011;10925;49.102;-0.370;2022-12-11T02:04:01;52.28;;;26.15;;
21527;SDS011;10925;49.102;-0.370;2022-12-11T02:06:47;57.00;;;26.88;;
21527;SDS011;10925;49.102;-0.370;2022-12-11T02:09:15;54.20;;;25.65;;
21527;SDS011;10925;49.102;-0.370;2022-12-11T02:11:46;54.65;;;26.30;;
21527;SDS011;10925;49.102;-0.370;2022-12-11T02:14:21;56.00;;;27.88;;
21527;SDS011;10925;49.102;-0.370;2022-12-11T02:17:53;51.88;;;26.85;;
21527;SDS011;10925;49.102;-0.370;2022-12-11T02:30:06;49.05;;;24.13;;
21527;SDS011;10925;49.102;-0.370;2022-12-11T02:37:38;42.33;;;22.85;;
21527;SDS011;10925;49.102;-0.370;2022-12-11T02:40:06;51.22;;;25.27;;
21527;SDS011;10925;49.102;-0.370;2022-12-11T02:42:32;49.58;;;25.08;;
21527;SDS011;10925;49.102;-0.370;2022-12-11T02:44:59;53.95;;;26.00;;
21527;SDS011;10925;49.102;-0.370;2022-12-11T02:47:27;54.92;;;25.77;;
21527;SDS011;10925;49.102;-0.370;2022-12-11T02:49:57;44.33;;;23.58;;
21527;SDS011;10925;49.102;-0.370;2022-12-11T02:52:23;51.47;;;23.30;;
21527;SDS011;10925;49.102;-0.370;2022-12-11T02:54:51;53.20;;;24.65;;
21527;SDS011;10925;49.102;-0.370;2022-12-11T02:57:28;49.15;;;25.00;;
21527;SDS011;10925;49.102;-0.370;2022-12-11T02:59:57;48.40;;;23.90;;
21527;SDS011;10925;49.102;-0.370;2022-12-11T03:02:24;46.25;;;23.38;;
21527;SDS011;10925;49.102;-0.370;2022-12-11T03:04:50;47.33;;;22.73;;
21527;SDS011;10925;49.102;-0.370;2022-12-11T03:07:19;49.97;;;24.65;;
21527;SDS011;10925;49.102;-0.370;2022-12-11T03:09:49;51.03;;;24.63;;
21527;SDS011;10925;49.102;-0.370;2022-12-11T03:12:18;49.70;;;22.58;;
21527;SDS011;10925;49.102;-0.370;2022-12-11T03:14:45;48.25;;;23.08;;
21527;SDS011;10925;49.102;-0.370;2022-12-11T03:17:15;48.78;;;23.23;;
21527;SDS011;10925;49.102;-0.370;2022-12-11T03:24:57;48.55;;;23.08;;
21527;SDS011;10925;49.102;-0.370;2022-12-11T03:27:33;43.40;;;22.08;;
21527;SDS011;10925;49.102;-0.370;2022-12-11T03:30:03;46.53;;;22.88;;
21527;SDS011;10925;49.102;-0.370;2022-12-11T03:32:34;45.65;;;21.42;;
21527;SDS011;10925;49.102;-0.370;2022-12-11T03:35:04;47.78;;;22.70;;
21527;SDS011;10925;49.102;-0.370;2022-12-11T03:37:33;46.78;;;22.48;;
21527;SDS011;10925;49.102;-0.370;2022-12-11T03:40:02;43.08;;;21.13;;
21527;SDS011;10925;49.102;-0.370;2022-12-11T03:42:32;49.92;;;22.52;;
21527;SDS011;10925;49.102;-0.370;2022-12-11T03:44:59;45.40;;;22.48;;
21527;SDS011;10925;49.102;-0.370;2022-12-11T03:47:26;48.38;;;23.23;;
21527;SDS011;10925;49.102;-0.370;2022-12-11T03:49:52;49.67;;;21.75;;
21527;SDS011;10925;49.102;-0.370;2022-12-11T03:52:21;47.00;;;22.52;;
21527;SDS011;10925;49.102;-0.370;2022-12-11T03:54:48;45.13;;;22.45;;
21527;SDS011;10925;49.102;-0.370;2022-12-11T03:57:17;47.42;;;22.90;;
21527;SDS011;10925;49.102;-0.370;2022-12-11T03:59:44;44.58;;;21.70;;
21527;SDS011;10925;49.102;-0.370;2022-12-11T04:02:10;48.25;;;21.13;;
21527;SDS011;10925;49.102;-0.370;2022-12-11T04:04:37;40.60;;;19.48;;
21527;SDS011;10925;49.102;-0.370;2022-12-11T04:07:04;45.17;;;22.13;;
21527;SDS011;10925;49.102;-0.370;2022-12-11T04:09:29;44.92;;;21.90;;
21527;SDS011;10925;49.102;-0.370;2022-12-11T04:11:55;47.35;;;22.65;;
21527;SDS011;10925;49.102;-0.370;2022-12-11T04:14:21;44.00;;;21.38;;
21527;SDS011;10925;49.102;-0.370;2022-12-11T04:17:07;50.92;;;22.75;;
21527;SDS011;10925;49.102;-0.370;2022-12-11T04:19:33;47.95;;;22.85;;
21527;SDS011;10925;49.102;-0.370;2022-12-11T04:22:18;43.03;;;20.92;;
21527;SDS011;10925;49.102;-0.370;2022-12-11T04:25:04;48.55;;;22.15;;
21527;SDS011;10925;49.102;-0.370;2022-12-11T04:27:30;47.75;;;22.23;;
21527;SDS011;10925;49.102;-0.370;2022-12-11T04:30:19;45.88;;;22.25;;
21527;SDS011;10925;49.102;-0.370;2022-12-11T04:32:46;47.85;;;21.55;;
21527;SDS011;10925;49.102;-0.370;2022-12-11T04:35:13;48.25;;;22.13;;
21527;SDS011;10925;49.102;-0.370;2022-12-11T04:37:40;45.25;;;21.70;;
21527;SDS011;10925;49.102;-0.370;2022-12-11T04:40:08;44.38;;;22.40;;
21527;SDS011;10925;49.102;-0.370;2022-12-11T04:42:35;48.00;;;23.17;;
21527;SDS011;10925;49.102;-0.370;2022-12-11T04:45:02;51.10;;;23.23;;
21527;SDS011;10925;49.102;-0.370;2022-12-11T04:47:29;49.78;;;22.85;;
21527;SDS011;10925;49.102;-0.370;2022-12-11T04:49:56;50.80;;;23.42;;
21527;SDS011;10925;49.102;-0.370;2022-12-11T04:52:22;47.67;;;22.15;;
21527;SDS011;10925;49.102;-0.370;2022-12-11T04:54:50;49.00;;;22.85;;
21527;SDS011;10925;49.102;-0.370;2022-12-11T04:57:15;49.35;;;22.92;;
21527;SDS011;10925;49.102;-0.370;2022-12-11T04:59:42;46.33;;;22.33;;
21527;SDS011;10925;49.102;-0.370;2022-12-11T05:02:07;47.33;;;23.02;;
21527;SDS011;10925;49.102;-0.370;2022-12-11T05:04:33;45.88;;;21.67;;
21527;SDS011;10925;49.102;-0.370;2022-12-11T05:06:59;45.95;;;22.05;;
21527;SDS011;10925;49.102;-0.370;2022-12-11T05:09:25;36.40;;;18.25;;
21527;SDS011;10925;49.102;-0.370;2022-12-11T05:11:52;46.53;;;22.98;;
21527;SDS011;10925;49.102;-0.370;2022-12-11T05:14:19;51.05;;;22.67;;
21527;SDS011;10925;49.102;-0.370;2022-12-11T05:16:47;45.00;;;21.25;;
21527;SDS011;10925;49.102;-0.370;2022-12-11T05:19:13;42.90;;;21.55;;
21527;SDS011;10925;49.102;-0.370;2022-12-11T05:21:40;49.33;;;22.70;;
21527;SDS011;10925;49.102;-0.370;2022-12-11T05:24:06;47.92;;;22.30;;
21527;SDS011;10925;49.102;-0.370;2022-12-11T05:26:33;51.55;;;23.88;;
21527;SDS011;10925;49.102;-0.370;2022-12-11T05:29:00;46.25;;;22.27;;
21527;SDS011;10925;49.102;-0.370;2022-12-11T05:31:26;47.20;;;22.40;;
21527;SDS011;10925;49.102;-0.370;2022-12-11T05:33:53;45.67;;;21.17;;
21527;SDS011;10925;49.102;-0.370;2022-12-11T05:36:24;46.08;;;21.48;;
21527;SDS011;10925;49.102;-0.370;2022-12-11T05:38:52;48.88;;;22.05;;
21527;SDS011;10925;49.102;-0.370;2022-12-11T05:41:20;43.53;;;22.48;;
21527;SDS011;10925;49.102;-0.370;2022-12-11T05:43:47;43.95;;;21.58;;
21527;SDS011;10925;49.102;-0.370;2022-12-11T05:46:15;49.83;;;21.88;;
21527;SDS011;10925;49.102;-0.370;2022-12-11T05:48:43;46.80;;;20.77;;
21527;SDS011;10925;49.102;-0.370;2022-12-11T05:51:09;44.35;;;22.02;;
21527;SDS011;10925;49.102;-0.370;2022-12-11T05:53:36;49.70;;;22.42;;
21527;SDS011;10925;49.102;-0.370;2022-12-11T05:56:06;52.60;;;22.88;;
21527;SDS011;10925;49.102;-0.370;2022-12-11T05:58:32;52.05;;;23.13;;
21527;SDS011;10925;49.102;-0.370;2022-12-11T06:00:59;49.28;;;21.95;;
21527;SDS011;10925;49.102;-0.370;2022-12-11T06:03:26;43.75;;;21.63;;
21527;SDS011;10925;49.102;-0.370;2022-12-11T06:05:53;51.97;;;22.33;;
21527;SDS011;10925;49.102;-0.370;2022-12-11T06:08:20;44.67;;;21.75;;
21527;SDS011;10925;49.102;-0.370;2022-12-11T06:10:47;45.97;;;21.35;;
21527;SDS011;10925;49.102;-0.370;2022-12-11T06:13:14;42.92;;;21.42;;
21527;SDS011;10925;49.102;-0.370;2022-12-11T06:15:41;45.38;;;21.30;;
21527;SDS011;10925;49.102;-0.370;2022-12-11T06:18:08;49.97;;;21.67;;
21527;SDS011;10925;49.102;-0.370;2022-12-11T06:20:35;48.40;;;21.88;;
21527;SDS011;10925;49.102;-0.370;2022-12-11T06:23:02;48.42;;;21.27;;
21527;SDS011;10925;49.102;-0.370;2022-12-11T06:25:28;46.95;;;20.65;;
21527;SDS011;10925;49.102;-0.370;2022-12-11T06:27:55;46.40;;;21.70;;
21527;SDS011;10925;49.102;-0.370;2022-12-11T06:30:22;46.58;;;20.83;;
21527;SDS011;10925;49.102;-0.370;2022-12-11T06:32:48;47.38;;;22.35;;
21527;SDS011;10925;49.102;-0.370;2022-12-11T06:35:14;49.38;;;21.55;;
21527;SDS011;10925;49.102;-0.370;2022-12-11T06:37:41;46.08;;;20.90;;
21527;SDS011;10925;49.102;-0.370;2022-12-11T06:40:07;41.10;;;19.25;;
21527;SDS011;10925;49.102;-0.370;2022-12-11T06:42:33;52.13;;;21.48;;
21527;SDS011;10925;49.102;-0.370;2022-12-11T06:44:59;46.63;;;21.55;;
21527;SDS011;10925;49.102;-0.370;2022-12-11T06:47:28;47.20;;;21.35;;
21527;SDS011;10925;49.102;-0.370;2022-12-11T06:49:55;46.20;;;20.55;;
21527;SDS011;10925;49.102;-0.370;2022-12-11T06:52:23;49.35;;;22.13;;
21527;SDS011;10925;49.102;-0.370;2022-12-11T06:54:53;50.83;;;22.63;;
21527;SDS011;10925;49.102;-0.370;2022-12-11T06:57:18;50.45;;;21.63;;
21527;SDS011;10925;49.102;-0.370;2022-12-11T06:59:45;45.75;;;20.45;;
21527;SDS011;10925;49.102;-0.370;2022-12-11T07:02:15;47.13;;;22.52;;
21527;SDS011;10925;49.102;-0.370;2022-12-11T07:04:40;46.03;;;21.05;;
21527;SDS011;10925;49.102;-0.370;2022-12-11T07:07:07;46.70;;;20.60;;
21527;SDS011;10925;49.102;-0.370;2022-12-11T07:09:35;45.42;;;20.92;;
21527;SDS011;10925;49.102;-0.370;2022-12-11T07:12:01;47.60;;;20.70;;
21527;SDS011;10925;49.102;-0.370;2022-12-11T07:14:29;49.25;;;21.30;;
21527;SDS011;10925;49.102;-0.370;2022-12-11T07:16:56;51.05;;;22.17;;
21527;SDS011;10925;49.102;-0.370;2022-12-11T07:19:24;52.47;;;23.02;;
21527;SDS011;10925;49.102;-0.370;2022-12-11T07:21:51;50.45;;;22.48;;
21527;SDS011;10925;49.102;-0.370;2022-12-11T07:24:18;45.28;;;22.15;;
21527;SDS011;10925;49.102;-0.370;2022-12-11T07:26:43;52.10;;;22.08;;
21527;SDS011;10925;49.102;-0.370;2022-12-11T07:29:10;49.92;;;21.65;;
21527;SDS011;10925;49.102;-0.370;2022-12-11T07:31:37;49.85;;;22.17;;
21527;SDS011;10925;49.102;-0.370;2022-12-11T07:34:03;46.38;;;22.67;;
21527;SDS011;10925;49.102;-0.370;2022-12-11T07:36:31;47.85;;;20.48;;
21527;SDS011;10925;49.102;-0.370;2022-12-11T07:38:59;47.65;;;22.60;;
21527;SDS011;10925;49.102;-0.370;2022-12-11T07:41:25;46.90;;;21.80;;
21527;SDS011;10925;49.102;-0.370;2022-12-11T07:43:57;47.70;;;22.05;;
21527;SDS011;10925;49.102;-0.370;2022-12-11T07:46:25;52.47;;;21.00;;
21527;SDS011;10925;49.102;-0.370;2022-12-11T07:48:52;46.75;;;21.38;;
21527;SDS011;10925;49.102;-0.370;2022-12-11T07:51:22;49.80;;;21.55;;
21527;SDS011;10925;49.102;-0.370;2022-12-11T07:53:50;46.20;;;20.80;;
21527;SDS011;10925;49.102;-0.370;2022-12-11T07:56:17;44.30;;;20.23;;
21527;SDS011;10925;49.102;-0.370;2022-12-11T07:58:44;49.28;;;21.80;;
21527;SDS011;10925;49.102;-0.370;2022-12-11T08:01:12;43.42;;;20.27;;
21527;SDS011;10925;49.102;-0.370;2022-12-11T08:03:39;42.55;;;20.65;;
21527;SDS011;10925;49.102;-0.370;2022-12-11T08:06:06;50.30;;;21.35;;
21527;SDS011;10925;49.102;-0.370;2022-12-11T08:08:32;46.55;;;20.95;;
21527;SDS011;10925;49.102;-0.370;2022-12-11T08:10:59;45.72;;;21.27;;
21527;SDS011;10925;49.102;-0.370;2022-12-11T08:13:26;46.70;;;21.13;;
21527;SDS011;10925;49.102;-0.370;2022-12-11T08:15:54;43.13;;;20.42;;
21527;SDS011;10925;49.102;-0.370;2022-12-11T08:18:20;42.70;;;19.42;;
21527;SDS011;10925;49.102;-0.370;2022-12-11T08:20:47;44.75;;;20.70;;
21527;SDS011;10925;49.102;-0.370;2022-12-11T08:23:13;47.13;;;20.92;;
21527;SDS011;10925;49.102;-0.370;2022-12-11T08:25:39;48.20;;;23.02;;
21527;SDS011;10925;49.102;-0.370;2022-12-11T08:28:06;46.47;;;21.20;;
21527;SDS011;10925;49.102;-0.370;2022-12-11T08:30:32;46.70;;;23.15;;
21527;SDS011;10925;49.102;-0.370;2022-12-11T08:32:58;49.47;;;22.17;;
21527;SDS011;10925;49.102;-0.370;2022-12-11T08:35:25;52.00;;;24.17;;
21527;SDS011;10925;49.102;-0.370;2022-12-11T08:37:52;56.13;;;22.52;;
21527;SDS011;10925;49.102;-0.370;2022-12-11T08:40:19;44.25;;;21.02;;
21527;SDS011;10925;49.102;-0.370;2022-12-11T08:42:45;43.65;;;21.25;;
21527;SDS011;10925;49.102;-0.370;2022-12-11T08:45:12;45.40;;;21.58;;
21527;SDS011;10925;49.102;-0.370;2022-12-11T08:47:38;45.70;;;19.77;;
21527;SDS011;10925;49.102;-0.370;2022-12-11T08:50:04;44.65;;;20.48;;
21527;SDS011;10925;49.102;-0.370;2022-12-11T08:52:33;40.90;;;17.70;;
21527;SDS011;10925;49.102;-0.370;2022-12-11T08:55:00;42.22;;;19.75;;
21527;SDS011;10925;49.102;-0.370;2022-12-11T08:57:27;42.72;;;19.25;;
21527;SDS011;10925;49.102;-0.370;2022-12-11T08:59:53;41.60;;;18.10;;
21527;SDS011;10925;49.102;-0.370;2022-12-11T09:02:19;40.00;;;18.17;;
21527;SDS011;10925;49.102;-0.370;2022-12-11T09:04:45;44.42;;;19.48;;
21527;SDS011;10925;49.102;-0.370;2022-12-11T09:07:12;38.70;;;18.48;;
21527;SDS011;10925;49.102;-0.370;2022-12-11T09:09:39;40.97;;;19.05;;
21527;SDS011;10925;49.102;-0.370;2022-12-11T09:12:06;39.25;;;18.40;;
21527;SDS011;10925;49.102;-0.370;2022-12-11T09:14:32;36.65;;;17.75;;
21527;SDS011;10925;49.102;-0.370;2022-12-11T09:16:59;39.25;;;18.00;;
21527;SDS011;10925;49.102;-0.370;2022-12-11T09:19:26;37.75;;;17.73;;
21527;SDS011;10925;49.102;-0.370;2022-12-11T09:21:57;38.50;;;18.58;;
21527;SDS011;10925;49.102;-0.370;2022-12-11T09:24:24;41.35;;;19.15;;
21527;SDS011;10925;49.102;-0.370;2022-12-11T09:26:51;37.92;;;18.50;;
21527;SDS011;10925;49.102;-0.370;2022-12-11T09:29:18;38.17;;;18.20;;
21527;SDS011;10925;49.102;-0.370;2022-12-11T09:31:43;40.85;;;18.95;;
21527;SDS011;10925;49.102;-0.370;2022-12-11T09:34:12;42.88;;;18.85;;
21527;SDS011;10925;49.102;-0.370;2022-12-11T09:36:39;44.53;;;19.75;;
21527;SDS011;10925;49.102;-0.370;2022-12-11T09:39:06;48.40;;;23.40;;
21527;SDS011;10925;49.102;-0.370;2022-12-11T09:41:34;39.10;;;18.65;;
21527;SDS011;10925;49.102;-0.370;2022-12-11T09:46:47;40.42;;;18.25;;
21527;SDS011;10925;49.102;-0.370;2022-12-11T09:49:22;39.65;;;18.20;;
21527;SDS011;10925;49.102;-0.370;2022-12-11T09:51:51;35.60;;;16.92;;
21527;SDS011;10925;49.102;-0.370;2022-12-11T09:54:19;36.80;;;17.10;;
21527;SDS011;10925;49.102;-0.370;2022-12-11T09:57:01;42.08;;;19.85;;
21527;SDS011;10925;49.102;-0.370;2022-12-11T10:10:46;41.65;;;17.80;;
21527;SDS011;10925;49.102;-0.370;2022-12-11T10:18:15;52.88;;;21.85;;
21527;SDS011;10925;49.102;-0.370;2022-12-11T10:20:42;48.55;;;21.25;;
21527;SDS011;10925;49.102;-0.370;2022-12-11T10:23:31;40.83;;;17.75;;
21527;SDS011;10925;49.102;-0.370;2022-12-11T10:26:03;41.90;;;18.27;;
21527;SDS011;10925;49.102;-0.370;2022-12-11T10:28:31;39.45;;;16.70;;
21527;SDS011;10925;49.102;-0.370;2022-12-11T10:33:33;43.85;;;18.20;;
21527;SDS011;10925;49.102;-0.370;2022-12-11T10:36:01;39.42;;;18.17;;
21527;SDS011;10925;49.102;-0.370;2022-12-11T10:38:29;40.13;;;16.95;;
21527;SDS011;10925;49.102;-0.370;2022-12-11T10:40:57;49.42;;;21.02;;
21527;SDS011;10925;49.102;-0.370;2022-12-11T10:43:57;59.03;;;23.40;;
21527;SDS011;10925;49.102;-0.370;2022-12-11T10:48:47;45.15;;;20.33;;
21527;SDS011;10925;49.102;-0.370;2022-12-11T10:51:15;49.33;;;21.27;;
21527;SDS011;10925;49.102;-0.370;2022-12-11T10:53:41;43.20;;;18.73;;
21527;SDS011;10925;49.102;-0.370;2022-12-11T10:56:10;41.80;;;18.58;;
21527;SDS011;10925;49.102;-0.370;2022-12-11T10:58:37;40.75;;;18.25;;
21527;SDS011;10925;49.102;-0.370;2022-12-11T11:01:13;45.80;;;19.60;;
21527;SDS011;10925;49.102;-0.370;2022-12-11T11:04:02;34.22;;;17.35;;
21527;SDS011;10925;49.102;-0.370;2022-12-11T11:06:27;36.08;;;16.88;;
21527;SDS011;10925;49.102;-0.370;2022-12-11T11:08:55;35.45;;;18.88;;
21527;SDS011;10925;49.102;-0.370;2022-12-11T11:11:24;33.97;;;16.02;;
21527;SDS011;10925;49.102;-0.370;2022-12-11T11:13:51;34.88;;;15.45;;
21527;SDS011;10925;49.102;-0.370;2022-12-11T11:16:19;38.08;;;18.35;;
21527;SDS011;10925;49.102;-0.370;2022-12-11T11:18:53;34.30;;;17.45;;
21527;SDS011;10925;49.102;-0.370;2022-12-11T11:21:19;44.05;;;19.30;;
21527;SDS011;10925;49.102;-0.370;2022-12-11T11:23:46;46.50;;;21.15;;
21527;SDS011;10925;49.102;-0.370;2022-12-11T11:26:19;35.13;;;16.17;;
21527;SDS011;10925;49.102;-0.370;2022-12-11T11:28:51;33.72;;;14.98;;
21527;SDS011;10925;49.102;-0.370;2022-12-11T11:31:18;37.00;;;16.58;;
21527;SDS011;10925;49.102;-0.370;2022-12-11T11:33:50;34.53;;;16.08;;
21527;SDS011;10925;49.102;-0.370;2022-12-11T11:36:20;31.70;;;15.73;;
21527;SDS011;10925;49.102;-0.370;2022-12-11T11:38:54;35.40;;;16.05;;
21527;SDS011;10925;49.102;-0.370;2022-12-11T11:41:24;40.53;;;19.40;;
21527;SDS011;10925;49.102;-0.370;2022-12-11T11:43:55;30.45;;;15.27;;
21527;SDS011;10925;49.102;-0.370;2022-12-11T11:51:51;38.28;;;17.70;;
21527;SDS011;10925;49.102;-0.370;2022-12-11T11:54:28;35.50;;;18.80;;
21527;SDS011;10925;49.102;-0.370;2022-12-11T11:56:56;40.10;;;17.98;;
21527;SDS011;10925;49.102;-0.370;2022-12-11T11:59:37;30.80;;;15.50;;
21527;SDS011;10925;49.102;-0.370;2022-12-11T12:02:12;55.60;;;22.27;;
21527;SDS011;10925;49.102;-0.370;2022-12-11T12:04:39;41.22;;;18.10;;
21527;SDS011;10925;49.102;-0.370;2022-12-11T12:09:51;33.72;;;15.57;;
21527;SDS011;10925;49.102;-0.370;2022-12-11T12:19:54;34.60;;;16.77;;
21527;SDS011;10925;49.102;-0.370;2022-12-11T12:25:14;33.78;;;17.38;;
21527;SDS011;10925;49.102;-0.370;2022-12-11T12:30:26;40.70;;;16.73;;
21527;SDS011;10925;49.102;-0.370;2022-12-11T12:35:36;31.98;;;15.32;;
21527;SDS011;10925;49.102;-0.370;2022-12-11T12:43:49;33.97;;;15.95;;
21527;SDS011;10925;49.102;-0.370;2022-12-11T12:48:56;29.40;;;13.50;;
21527;SDS011;10925;49.102;-0.370;2022-12-11T12:51:24;29.63;;;14.63;;
21527;SDS011;10925;49.102;-0.370;2022-12-11T12:53:53;30.23;;;14.90;;
21527;SDS011;10925;49.102;-0.370;2022-12-11T12:56:21;29.13;;;13.38;;
21527;SDS011;10925;49.102;-0.370;2022-12-11T12:58:47;33.53;;;15.05;;
21527;SDS011;10925;49.102;-0.370;2022-12-11T13:01:16;29.42;;;15.15;;
21527;SDS011;10925;49.102;-0.370;2022-12-11T13:03:53;28.10;;;13.93;;
21527;SDS011;10925;49.102;-0.370;2022-12-11T13:06:32;30.52;;;15.68;;
21527;SDS011;10925;49.102;-0.370;2022-12-11T13:09:08;33.17;;;15.75;;
21527;SDS011;10925;49.102;-0.370;2022-12-11T13:11:35;27.35;;;14.52;;
21527;SDS011;10925;49.102;-0.370;2022-12-11T13:14:05;29.85;;;15.23;;
21527;SDS011;10925;49.102;-0.370;2022-12-11T13:16:36;28.67;;;14.32;;
21527;SDS011;10925;49.102;-0.370;2022-12-11T13:19:02;24.90;;;13.77;;
21527;SDS011;10925;49.102;-0.370;2022-12-11T13:23:53;30.25;;;14.75;;
21527;SDS011;10925;49.102;-0.370;2022-12-11T13:26:29;30.40;;;15.45;;
21527;SDS011;10925;49.102;-0.370;2022-12-11T13:28:56;27.75;;;15.70;;
21527;SDS011;10925;49.102;-0.370;2022-12-11T13:31:38;43.50;;;18.27;;
21527;SDS011;10925;49.102;-0.370;2022-12-11T13:34:20;39.95;;;18.80;;
21527;SDS011;10925;49.102;-0.370;2022-12-11T13:36:47;33.45;;;16.55;;
21527;SDS011;10925;49.102;-0.370;2022-12-11T13:41:47;44.20;;;21.27;;
21527;SDS011;10925;49.102;-0.370;2022-12-11T13:44:20;39.63;;;18.63;;
21527;SDS011;10925;49.102;-0.370;2022-12-11T13:46:48;40.88;;;17.60;;
21527;SDS011;10925;49.102;-0.370;2022-12-11T13:49:18;43.15;;;17.83;;
21527;SDS011;10925;49.102;-0.370;2022-12-11T13:51:53;38.28;;;18.88;;
21527;SDS011;10925;49.102;-0.370;2022-12-11T13:54:20;33.83;;;15.13;;
21527;SDS011;10925;49.102;-0.370;2022-12-11T13:56:57;29.77;;;14.88;;
21527;SDS011;10925;49.102;-0.370;2022-12-11T13:59:24;29.17;;;15.18;;
21527;SDS011;10925;49.102;-0.370;2022-12-11T14:01:51;30.90;;;15.18;;
21527;SDS011;10925;49.102;-0.370;2022-12-11T14:04:18;27.17;;;14.70;;
21527;SDS011;10925;49.102;-0.370;2022-12-11T14:06:47;23.55;;;14.02;;
21527;SDS011;10925;49.102;-0.370;2022-12-11T14:09:18;28.95;;;15.43;;
21527;SDS011;10925;49.102;-0.370;2022-12-11T14:11:44;28.40;;;14.27;;
21527;SDS011;10925;49.102;-0.370;2022-12-11T14:14:26;27.83;;;14.07;;
21527;SDS011;10925;49.102;-0.370;2022-12-11T14:16:53;28.15;;;15.15;;
21527;SDS011;10925;49.102;-0.370;2022-12-11T14:19:20;26.70;;;15.25;;
21527;SDS011;10925;49.102;-0.370;2022-12-11T14:21:54;26.02;;;14.93;;
21527;SDS011;10925;49.102;-0.370;2022-12-11T14:24:19;29.00;;;14.70;;
21527;SDS011;10925;49.102;-0.370;2022-12-11T14:26:48;24.55;;;13.70;;
21527;SDS011;10925;49.102;-0.370;2022-12-11T14:29:31;24.13;;;14.75;;
21527;SDS011;10925;49.102;-0.370;2022-12-11T14:31:59;25.13;;;13.23;;
21527;SDS011;10925;49.102;-0.370;2022-12-11T14:34:28;25.33;;;14.05;;
21527;SDS011;10925;49.102;-0.370;2022-12-11T14:36:54;31.58;;;16.02;;
21527;SDS011;10925;49.102;-0.370;2022-12-11T14:39:29;30.17;;;16.85;;
21527;SDS011;10925;49.102;-0.370;2022-12-11T14:42:13;30.27;;;14.50;;
21527;SDS011;10925;49.102;-0.370;2022-12-11T14:44:45;25.10;;;14.02;;
21527;SDS011;10925;49.102;-0.370;2022-12-11T14:47:16;27.20;;;14.88;;
21527;SDS011;10925;49.102;-0.370;2022-12-11T14:49:52;29.70;;;16.63;;
21527;SDS011;10925;49.102;-0.370;2022-12-11T14:52:21;23.75;;;13.18;;
21527;SDS011;10925;49.102;-0.370;2022-12-11T14:57:40;23.30;;;13.45;;
21527;SDS011;10925;49.102;-0.370;2022-12-11T15:00:19;27.30;;;14.90;;
21527;SDS011;10925;49.102;-0.370;2022-12-11T15:02:54;26.90;;;14.95;;
21527;SDS011;10925;49.102;-0.370;2022-12-11T15:05:21;28.92;;;15.93;;
21527;SDS011;10925;49.102;-0.370;2022-12-11T15:07:56;28.35;;;14.77;;
21527;SDS011;10925;49.102;-0.370;2022-12-11T15:12:51;29.20;;;15.63;;
21527;SDS011;10925;49.102;-0.370;2022-12-11T15:15:18;28.52;;;14.43;;
21527;SDS011;10925;49.102;-0.370;2022-12-11T15:17:44;29.52;;;15.50;;
21527;SDS011;10925;49.102;-0.370;2022-12-11T15:20:19;29.60;;;15.13;;
21527;SDS011;10925;49.102;-0.370;2022-12-11T15:22:45;28.05;;;15.18;;
21527;SDS011;10925;49.102;-0.370;2022-12-11T15:25:18;32.08;;;16.42;;
21527;SDS011;10925;49.102;-0.370;2022-12-11T15:27:48;27.80;;;14.77;;
21527;SDS011;10925;49.102;-0.370;2022-12-11T15:35:36;32.10;;;18.23;;
21527;SDS011;10925;49.102;-0.370;2022-12-11T15:38:23;35.47;;;17.90;;
21527;SDS011;10925;49.102;-0.370;2022-12-11T15:40:50;35.97;;;18.83;;
21527;SDS011;10925;49.102;-0.370;2022-12-11T15:43:16;33.92;;;18.40;;
21527;SDS011;10925;49.102;-0.370;2022-12-11T15:45:43;37.20;;;19.77;;
21527;SDS011;10925;49.102;-0.370;2022-12-11T15:48:10;33.35;;;19.05;;
21527;SDS011;10925;49.102;-0.370;2022-12-11T15:50:37;39.33;;;19.73;;
21527;SDS011;10925;49.102;-0.370;2022-12-11T15:53:06;31.23;;;16.88;;